DLH7HH EGLL-EDDM
Flight info
| Callsign | DLH7HH |
|---|---|
| Flight time | 1h 20m |
| Altitude | 37000 |
| Route | DET L6 DVR UL9 KONAN UL607 SPI DCT MOVUM T109 HAREM T104 ROKIL ROKIL1B |
| Aircraft | A346/H-SDE2E3FGHIJ3J4J5M1RWXY/LB1D1 |
Departure
| Time | 2026-05-07 01:23 |
|---|---|
| Airport | London Heathrow Airport (EGLL) |
Arrival
| Time | 2026-05-07 02:44 |
|---|---|
| Airport | Munich Airport (EDDM) |
| Time | Latitude | Longitude | Altitude | Speed | Heading |
|---|---|---|---|---|---|
| 2026-05-07 01:06 | 51.47020 | -0.44433 | 93 ft | 0 kts | 90° |
| 2026-05-07 01:08 | 51.47020 | -0.44447 | 93 ft | 0 kts | 90° |
| 2026-05-07 01:08 | 51.47020 | -0.44489 | 97 ft | 0 kts | 90° |
| 2026-05-07 01:09 | 51.47021 | -0.44531 | 97 ft | 0 kts | 90° |
| 2026-05-07 01:09 | 51.47021 | -0.44574 | 97 ft | 0 kts | 90° |
| 2026-05-07 01:09 | 51.47021 | -0.44593 | 93 ft | 0 kts | 90° |
| 2026-05-07 01:11 | 51.47021 | -0.44592 | 93 ft | 1 kts | 90° |
| 2026-05-07 01:11 | 51.47027 | -0.44573 | 94 ft | 4 kts | 46° |
| 2026-05-07 01:12 | 51.47071 | -0.44564 | 97 ft | 11 kts | 3° |
| 2026-05-07 01:12 | 51.47178 | -0.44560 | 93 ft | 19 kts | 359° |
| 2026-05-07 01:12 | 51.47319 | -0.44566 | 96 ft | 22 kts | 359° |
| 2026-05-07 01:12 | 51.47462 | -0.44553 | 95 ft | 20 kts | 33° |
| 2026-05-07 01:13 | 51.47508 | -0.44341 | 96 ft | 22 kts | 87° |
| 2026-05-07 01:13 | 51.47512 | -0.44113 | 96 ft | 13 kts | 82° |
| 2026-05-07 01:13 | 51.47516 | -0.44090 | 96 ft | 0 kts | 60° |
| 2026-05-07 01:13 | 51.47520 | -0.44083 | 95 ft | 1 kts | 46° |
| 2026-05-07 01:14 | 51.47537 | -0.44071 | 97 ft | 4 kts | 4° |
| 2026-05-07 01:14 | 51.47577 | -0.44105 | 96 ft | 6 kts | 306° |
| 2026-05-07 01:14 | 51.47579 | -0.44153 | 96 ft | 6 kts | 280° |
| 2026-05-07 01:14 | 51.47591 | -0.44290 | 94 ft | 15 kts | 276° |
| 2026-05-07 01:15 | 51.47599 | -0.44475 | 96 ft | 16 kts | 270° |
| 2026-05-07 01:15 | 51.47599 | -0.44678 | 98 ft | 23 kts | 270° |
| 2026-05-07 01:15 | 51.47598 | -0.44965 | 97 ft | 25 kts | 270° |
| 2026-05-07 01:15 | 51.47597 | -0.45233 | 96 ft | 24 kts | 270° |
| 2026-05-07 01:16 | 51.47596 | -0.45504 | 95 ft | 25 kts | 270° |
| 2026-05-07 01:16 | 51.47596 | -0.45840 | 97 ft | 32 kts | 270° |
| 2026-05-07 01:16 | 51.47595 | -0.46191 | 99 ft | 31 kts | 270° |
| 2026-05-07 01:16 | 51.47592 | -0.46532 | 98 ft | 32 kts | 269° |
| 2026-05-07 01:17 | 51.47585 | -0.46916 | 100 ft | 33 kts | 267° |
| 2026-05-07 01:17 | 51.47580 | -0.47249 | 97 ft | 24 kts | 270° |
| 2026-05-07 01:17 | 51.47580 | -0.47523 | 97 ft | 24 kts | 270° |
| 2026-05-07 01:17 | 51.47581 | -0.47800 | 98 ft | 26 kts | 270° |
| 2026-05-07 01:18 | 51.47581 | -0.48061 | 98 ft | 15 kts | 270° |
| 2026-05-07 01:18 | 51.47581 | -0.48143 | 99 ft | 2 kts | 270° |
| 2026-05-07 01:18 | 51.47581 | -0.48197 | 100 ft | 6 kts | 270° |
| 2026-05-07 01:18 | 51.47578 | -0.48310 | 100 ft | 14 kts | 268° |
| 2026-05-07 01:19 | 51.47575 | -0.48472 | 94 ft | 9 kts | 268° |
| 2026-05-07 01:19 | 51.47576 | -0.48536 | 94 ft | 7 kts | 271° |
| 2026-05-07 01:19 | 51.47576 | -0.48572 | 94 ft | 0 kts | 271° |
| 2026-05-07 01:20 | 51.47576 | -0.48647 | 98 ft | 8 kts | 271° |
| 2026-05-07 01:20 | 51.47577 | -0.48736 | 99 ft | 11 kts | 271° |
| 2026-05-07 01:20 | 51.47578 | -0.48895 | 99 ft | 15 kts | 271° |
| 2026-05-07 01:20 | 51.47590 | -0.48980 | 100 ft | 6 kts | 308° |
| 2026-05-07 01:21 | 51.47603 | -0.49001 | 99 ft | 0 kts | 317° |
| 2026-05-07 01:22 | 51.47610 | -0.49011 | 98 ft | 7 kts | 322° |
| 2026-05-07 01:22 | 51.47706 | -0.49024 | 97 ft | 15 kts | 31° |
| 2026-05-07 01:22 | 51.47745 | -0.48837 | 98 ft | 33 kts | 93° |
| 2026-05-07 01:23 | 51.47748 | -0.48290 | 100 ft | 80 kts | 87° |
| 2026-05-07 01:23 | 51.47764 | -0.47012 | 99 ft | 147 kts | 89° |
| 2026-05-07 01:23 | 51.47747 | -0.45071 | 471 ft | 183 kts | 90° |
| 2026-05-07 01:23 | 51.47710 | -0.43042 | 1567 ft | 182 kts | 90° |
| 2026-05-07 01:24 | 51.47557 | -0.40998 | 2331 ft | 192 kts | 107° |
| 2026-05-07 01:24 | 51.46896 | -0.39045 | 2923 ft | 208 kts | 129° |
| 2026-05-07 01:24 | 51.45822 | -0.37354 | 3515 ft | 224 kts | 141° |
| 2026-05-07 01:24 | 51.44520 | -0.35803 | 4104 ft | 243 kts | 144° |
| 2026-05-07 01:25 | 51.43291 | -0.33805 | 4736 ft | 263 kts | 120° |
| 2026-05-07 01:25 | 51.42730 | -0.30985 | 5608 ft | 269 kts | 99° |
| 2026-05-07 01:25 | 51.42477 | -0.28047 | 6655 ft | 271 kts | 98° |
| 2026-05-07 01:25 | 51.42205 | -0.25032 | 7590 ft | 275 kts | 99° |
| 2026-05-07 01:26 | 51.41984 | -0.22977 | 8198 ft | 279 kts | 100° |
| 2026-05-07 01:26 | 51.41478 | -0.18888 | 9396 ft | 286 kts | 101° |
| 2026-05-07 01:26 | 51.41196 | -0.16762 | 10000 ft | 290 kts | 101° |
| 2026-05-07 01:26 | 51.40763 | -0.13563 | 10727 ft | 300 kts | 101° |
| 2026-05-07 01:27 | 51.40305 | -0.10204 | 11226 ft | 317 kts | 101° |
| 2026-05-07 01:27 | 51.39985 | -0.07873 | 11544 ft | 329 kts | 102° |
| 2026-05-07 01:27 | 51.38731 | 0.01169 | 12590 ft | 373 kts | 102° |
| 2026-05-07 01:28 | 51.38152 | 0.05319 | 13082 ft | 389 kts | 102° |
| 2026-05-07 01:28 | 51.37556 | 0.09586 | 13887 ft | 394 kts | 102° |
| 2026-05-07 01:28 | 51.36953 | 0.13882 | 14714 ft | 397 kts | 102° |
| 2026-05-07 01:28 | 51.36343 | 0.18221 | 15485 ft | 402 kts | 102° |
| 2026-05-07 01:29 | 51.35721 | 0.22642 | 16229 ft | 407 kts | 102° |
| 2026-05-07 01:29 | 51.35094 | 0.27087 | 16970 ft | 412 kts | 102° |
| 2026-05-07 01:29 | 51.34456 | 0.31590 | 17719 ft | 416 kts | 102° |
| 2026-05-07 01:29 | 51.33807 | 0.36142 | 18445 ft | 421 kts | 103° |
| 2026-05-07 01:30 | 51.33150 | 0.40738 | 19089 ft | 426 kts | 103° |
| 2026-05-07 01:30 | 51.32485 | 0.45381 | 19652 ft | 430 kts | 103° |
| 2026-05-07 01:30 | 51.31811 | 0.50067 | 20308 ft | 434 kts | 103° |
| 2026-05-07 01:30 | 51.31130 | 0.54798 | 20952 ft | 438 kts | 103° |
| 2026-05-07 01:31 | 51.30424 | 0.59567 | 21603 ft | 442 kts | 104° |
| 2026-05-07 01:31 | 51.29593 | 0.64327 | 22252 ft | 446 kts | 106° |
| 2026-05-07 01:31 | 51.28722 | 0.69121 | 22890 ft | 450 kts | 107° |
| 2026-05-07 01:31 | 51.27836 | 0.73947 | 23513 ft | 454 kts | 107° |
| 2026-05-07 01:32 | 51.26940 | 0.78812 | 24040 ft | 458 kts | 107° |
| 2026-05-07 01:32 | 51.26035 | 0.83717 | 24558 ft | 462 kts | 107° |
| 2026-05-07 01:32 | 51.25120 | 0.88668 | 25108 ft | 465 kts | 107° |
| 2026-05-07 01:32 | 51.24200 | 0.93642 | 25612 ft | 469 kts | 107° |
| 2026-05-07 01:33 | 51.23268 | 0.98666 | 26138 ft | 473 kts | 107° |
| 2026-05-07 01:33 | 51.22329 | 1.03711 | 26621 ft | 477 kts | 107° |
| 2026-05-07 01:33 | 51.21378 | 1.08801 | 27112 ft | 480 kts | 107° |
| 2026-05-07 01:33 | 51.20419 | 1.13924 | 27606 ft | 484 kts | 107° |
| 2026-05-07 01:34 | 51.19448 | 1.19088 | 28089 ft | 487 kts | 107° |
| 2026-05-07 01:34 | 51.18471 | 1.24281 | 28601 ft | 489 kts | 107° |
| 2026-05-07 01:34 | 51.17538 | 1.29500 | 29294 ft | 488 kts | 105° |
| 2026-05-07 01:34 | 51.16776 | 1.34765 | 30054 ft | 486 kts | 102° |
| 2026-05-07 01:35 | 51.16197 | 1.40061 | 30695 ft | 484 kts | 98° |
| 2026-05-07 01:35 | 51.15802 | 1.45387 | 31276 ft | 483 kts | 95° |
| 2026-05-07 01:35 | 51.15535 | 1.50718 | 31866 ft | 481 kts | 94° |
| 2026-05-07 01:35 | 51.15289 | 1.55961 | 32452 ft | 480 kts | 94° |
| 2026-05-07 01:36 | 51.15039 | 1.61270 | 33016 ft | 479 kts | 94° |
| 2026-05-07 01:36 | 51.14782 | 1.66636 | 33605 ft | 478 kts | 94° |
| 2026-05-07 01:36 | 51.14524 | 1.71919 | 34141 ft | 477 kts | 94° |
| 2026-05-07 01:36 | 51.14262 | 1.77190 | 34593 ft | 476 kts | 94° |
| 2026-05-07 01:37 | 51.14000 | 1.82376 | 35010 ft | 476 kts | 95° |
| 2026-05-07 01:37 | 51.13727 | 1.87715 | 35419 ft | 477 kts | 95° |
| 2026-05-07 01:37 | 51.13454 | 1.92996 | 35767 ft | 478 kts | 95° |
| 2026-05-07 01:37 | 51.13179 | 1.98280 | 36080 ft | 480 kts | 95° |
| 2026-05-07 01:38 | 51.12908 | 2.03590 | 36369 ft | 482 kts | 95° |
| 2026-05-07 01:38 | 51.12646 | 2.08930 | 36651 ft | 484 kts | 95° |
| 2026-05-07 01:38 | 51.12383 | 2.14288 | 36927 ft | 486 kts | 95° |
| 2026-05-07 01:39 | 51.11842 | 2.25057 | 37022 ft | 488 kts | 95° |
| 2026-05-07 01:39 | 51.11287 | 2.35774 | 37013 ft | 489 kts | 95° |
| 2026-05-07 01:40 | 51.10716 | 2.46563 | 37007 ft | 488 kts | 95° |
| 2026-05-07 01:40 | 51.10128 | 2.57335 | 37005 ft | 488 kts | 96° |
| 2026-05-07 01:41 | 51.09075 | 2.68008 | 37003 ft | 487 kts | 103° |
| 2026-05-07 01:41 | 51.07329 | 2.78434 | 37004 ft | 487 kts | 107° |
| 2026-05-07 01:42 | 51.05412 | 2.88777 | 37007 ft | 487 kts | 107° |
| 2026-05-07 01:42 | 51.03489 | 2.99120 | 37007 ft | 487 kts | 107° |
| 2026-05-07 01:43 | 51.01564 | 3.09446 | 37006 ft | 487 kts | 107° |
| 2026-05-07 01:43 | 50.99631 | 3.19767 | 37005 ft | 487 kts | 107° |
| 2026-05-07 01:44 | 50.97687 | 3.30087 | 37002 ft | 487 kts | 107° |
| 2026-05-07 01:44 | 50.95736 | 3.40380 | 37003 ft | 486 kts | 107° |
| 2026-05-07 01:45 | 50.93776 | 3.50667 | 37004 ft | 486 kts | 107° |
| 2026-05-07 01:45 | 50.91808 | 3.60934 | 37001 ft | 486 kts | 107° |
| 2026-05-07 01:46 | 50.89840 | 3.71195 | 37000 ft | 486 kts | 107° |
| 2026-05-07 01:46 | 50.87879 | 3.81385 | 36999 ft | 486 kts | 107° |
| 2026-05-07 01:47 | 50.85894 | 3.91629 | 37002 ft | 486 kts | 108° |
| 2026-05-07 01:47 | 50.83894 | 4.01882 | 37004 ft | 486 kts | 108° |
| 2026-05-07 01:48 | 50.81888 | 4.12102 | 37005 ft | 486 kts | 108° |
| 2026-05-07 01:48 | 50.79872 | 4.22320 | 37003 ft | 486 kts | 108° |
| 2026-05-07 01:49 | 50.77852 | 4.32506 | 37008 ft | 485 kts | 108° |
| 2026-05-07 01:49 | 50.75821 | 4.42690 | 37008 ft | 485 kts | 108° |
| 2026-05-07 01:50 | 50.73781 | 4.52852 | 37006 ft | 485 kts | 108° |
| 2026-05-07 01:50 | 50.71744 | 4.63019 | 37006 ft | 485 kts | 108° |
| 2026-05-07 01:51 | 50.69779 | 4.73213 | 36995 ft | 485 kts | 107° |
| 2026-05-07 01:51 | 50.67803 | 4.83401 | 36998 ft | 485 kts | 108° |
| 2026-05-07 01:52 | 50.65805 | 4.93569 | 36995 ft | 485 kts | 108° |
| 2026-05-07 01:52 | 50.63754 | 5.03616 | 36990 ft | 485 kts | 108° |
| 2026-05-07 01:53 | 50.61664 | 5.13733 | 36984 ft | 485 kts | 109° |
| 2026-05-07 01:53 | 50.59570 | 5.23841 | 36984 ft | 485 kts | 109° |
| 2026-05-07 01:54 | 50.57464 | 5.33944 | 36983 ft | 485 kts | 109° |
| 2026-05-07 01:54 | 50.55350 | 5.44039 | 36979 ft | 485 kts | 109° |
| 2026-05-07 01:55 | 50.53227 | 5.54118 | 36976 ft | 485 kts | 109° |
| 2026-05-07 01:55 | 50.51152 | 5.64228 | 36966 ft | 485 kts | 107° |
| 2026-05-07 01:56 | 50.49308 | 5.74444 | 36971 ft | 485 kts | 107° |
| 2026-05-07 01:56 | 50.47460 | 5.84654 | 36962 ft | 485 kts | 107° |
| 2026-05-07 01:57 | 50.45599 | 5.94860 | 36957 ft | 485 kts | 107° |
| 2026-05-07 01:57 | 50.43730 | 6.05045 | 36949 ft | 485 kts | 107° |
| 2026-05-07 01:58 | 50.41849 | 6.15231 | 36952 ft | 485 kts | 107° |
| 2026-05-07 01:58 | 50.39959 | 6.25406 | 36952 ft | 485 kts | 107° |
| 2026-05-07 01:59 | 50.38061 | 6.35567 | 36941 ft | 485 kts | 107° |
| 2026-05-07 01:59 | 50.36153 | 6.45731 | 36940 ft | 485 kts | 107° |
| 2026-05-07 02:00 | 50.34239 | 6.55875 | 36934 ft | 485 kts | 108° |
| 2026-05-07 02:00 | 50.32314 | 6.66015 | 36931 ft | 485 kts | 108° |
| 2026-05-07 02:01 | 50.30380 | 6.76146 | 36927 ft | 485 kts | 108° |
| 2026-05-07 02:01 | 50.28440 | 6.86260 | 36927 ft | 485 kts | 108° |
| 2026-05-07 02:02 | 50.26491 | 6.96372 | 36922 ft | 485 kts | 108° |
| 2026-05-07 02:02 | 50.24549 | 7.06387 | 36926 ft | 485 kts | 108° |
| 2026-05-07 02:03 | 50.22579 | 7.16487 | 36926 ft | 485 kts | 108° |
| 2026-05-07 02:03 | 50.20603 | 7.26571 | 36927 ft | 485 kts | 108° |
| 2026-05-07 02:04 | 50.18619 | 7.36644 | 36907 ft | 485 kts | 109° |
| 2026-05-07 02:04 | 50.16629 | 7.46702 | 36917 ft | 484 kts | 109° |
| 2026-05-07 02:05 | 50.14628 | 7.56749 | 36912 ft | 484 kts | 109° |
| 2026-05-07 02:05 | 50.12620 | 7.66784 | 36913 ft | 484 kts | 109° |
| 2026-05-07 02:06 | 50.10604 | 7.76808 | 36916 ft | 484 kts | 109° |
| 2026-05-07 02:06 | 50.08579 | 7.86834 | 36915 ft | 484 kts | 109° |
| 2026-05-07 02:07 | 50.06547 | 7.96828 | 36918 ft | 484 kts | 109° |
| 2026-05-07 02:07 | 50.03482 | 8.11808 | 36926 ft | 483 kts | 109° |
| 2026-05-07 02:08 | 50.01428 | 8.21778 | 36931 ft | 484 kts | 109° |
| 2026-05-07 02:08 | 49.99369 | 8.31736 | 36930 ft | 484 kts | 110° |
| 2026-05-07 02:09 | 49.97646 | 8.40008 | 36933 ft | 484 kts | 110° |
| 2026-05-07 02:09 | 49.95418 | 8.49871 | 36924 ft | 482 kts | 114° |
| 2026-05-07 02:10 | 49.92560 | 8.59287 | 36927 ft | 480 kts | 121° |
| 2026-05-07 02:10 | 49.89250 | 8.68302 | 36903 ft | 480 kts | 122° |
| 2026-05-07 02:11 | 49.85924 | 8.77295 | 36899 ft | 480 kts | 122° |
| 2026-05-07 02:11 | 49.82585 | 8.86274 | 36903 ft | 481 kts | 122° |
| 2026-05-07 02:12 | 49.79236 | 8.95256 | 36900 ft | 481 kts | 122° |
| 2026-05-07 02:12 | 49.75893 | 9.04217 | 36899 ft | 481 kts | 122° |
| 2026-05-07 02:13 | 49.72525 | 9.13212 | 36896 ft | 480 kts | 122° |
| 2026-05-07 02:13 | 49.69162 | 9.22131 | 36901 ft | 480 kts | 123° |
| 2026-05-07 02:14 | 49.65792 | 9.31042 | 36898 ft | 480 kts | 123° |
| 2026-05-07 02:14 | 49.62278 | 9.39794 | 36895 ft | 478 kts | 127° |
| 2026-05-07 02:15 | 49.58210 | 9.47878 | 36889 ft | 476 kts | 134° |
| 2026-05-07 02:15 | 49.53850 | 9.55523 | 36894 ft | 474 kts | 134° |
| 2026-05-07 02:16 | 49.49517 | 9.63091 | 36900 ft | 474 kts | 134° |
| 2026-05-07 02:16 | 49.45124 | 9.70751 | 36901 ft | 474 kts | 134° |
| 2026-05-07 02:17 | 49.40785 | 9.78297 | 36899 ft | 474 kts | 134° |
| 2026-05-07 02:17 | 49.36415 | 9.85880 | 36886 ft | 474 kts | 135° |
| 2026-05-07 02:18 | 49.32048 | 9.93433 | 36686 ft | 470 kts | 135° |
| 2026-05-07 02:18 | 49.29868 | 9.97174 | 35970 ft | 472 kts | 135° |
| 2026-05-07 02:18 | 49.27657 | 10.00959 | 34930 ft | 475 kts | 134° |
| 2026-05-07 02:19 | 49.25444 | 10.04743 | 33587 ft | 478 kts | 134° |
| 2026-05-07 02:19 | 49.23229 | 10.08540 | 32184 ft | 477 kts | 134° |
| 2026-05-07 02:19 | 49.21020 | 10.12329 | 30749 ft | 477 kts | 134° |
| 2026-05-07 02:19 | 49.18805 | 10.16121 | 29099 ft | 479 kts | 134° |
| 2026-05-07 02:20 | 49.16585 | 10.19912 | 27635 ft | 476 kts | 134° |
| 2026-05-07 02:20 | 49.14424 | 10.23618 | 26826 ft | 458 kts | 135° |
| 2026-05-07 02:20 | 49.12296 | 10.27177 | 25651 ft | 450 kts | 137° |
| 2026-05-07 02:20 | 49.10135 | 10.30641 | 24606 ft | 447 kts | 137° |
| 2026-05-07 02:21 | 49.07990 | 10.34047 | 24187 ft | 440 kts | 137° |
| 2026-05-07 02:21 | 49.05885 | 10.37400 | 23782 ft | 434 kts | 137° |
| 2026-05-07 02:21 | 49.03813 | 10.40716 | 23353 ft | 429 kts | 137° |
| 2026-05-07 02:21 | 49.01765 | 10.43993 | 22889 ft | 425 kts | 137° |
| 2026-05-07 02:22 | 48.99739 | 10.47232 | 22462 ft | 419 kts | 137° |
| 2026-05-07 02:22 | 48.97737 | 10.50425 | 22018 ft | 414 kts | 137° |
| 2026-05-07 02:22 | 48.95755 | 10.53581 | 21579 ft | 410 kts | 137° |
| 2026-05-07 02:22 | 48.93796 | 10.56700 | 21166 ft | 405 kts | 137° |
| 2026-05-07 02:23 | 48.91856 | 10.59788 | 20735 ft | 402 kts | 137° |
| 2026-05-07 02:23 | 48.89930 | 10.62847 | 20339 ft | 399 kts | 137° |
| 2026-05-07 02:23 | 48.88018 | 10.65881 | 19921 ft | 396 kts | 137° |
| 2026-05-07 02:23 | 48.86116 | 10.68895 | 19507 ft | 394 kts | 136° |
| 2026-05-07 02:24 | 48.84223 | 10.71890 | 19089 ft | 392 kts | 136° |
| 2026-05-07 02:24 | 48.82339 | 10.74868 | 18670 ft | 390 kts | 136° |
| 2026-05-07 02:24 | 48.80461 | 10.77833 | 18259 ft | 389 kts | 136° |
| 2026-05-07 02:24 | 48.78588 | 10.80781 | 17794 ft | 387 kts | 136° |
| 2026-05-07 02:25 | 48.76750 | 10.83669 | 17355 ft | 384 kts | 136° |
| 2026-05-07 02:25 | 48.74893 | 10.86581 | 16931 ft | 382 kts | 137° |
| 2026-05-07 02:25 | 48.73049 | 10.89467 | 16501 ft | 380 kts | 137° |
| 2026-05-07 02:25 | 48.71188 | 10.92376 | 16093 ft | 378 kts | 137° |
| 2026-05-07 02:26 | 48.69388 | 10.95191 | 15677 ft | 376 kts | 137° |
| 2026-05-07 02:26 | 48.67566 | 10.98033 | 15259 ft | 375 kts | 137° |
| 2026-05-07 02:26 | 48.65753 | 11.00854 | 14839 ft | 374 kts | 137° |
| 2026-05-07 02:26 | 48.63943 | 11.03667 | 14429 ft | 372 kts | 137° |
| 2026-05-07 02:27 | 48.62136 | 11.06471 | 14017 ft | 371 kts | 137° |
| 2026-05-07 02:27 | 48.60336 | 11.09262 | 13593 ft | 370 kts | 137° |
| 2026-05-07 02:27 | 48.58497 | 11.11937 | 13318 ft | 360 kts | 142° |
| 2026-05-07 02:27 | 48.56604 | 11.14286 | 13215 ft | 345 kts | 147° |
| 2026-05-07 02:28 | 48.54682 | 11.16329 | 13087 ft | 332 kts | 149° |
| 2026-05-07 02:28 | 48.52798 | 11.18246 | 12963 ft | 322 kts | 149° |
| 2026-05-07 02:28 | 48.51007 | 11.20252 | 12885 ft | 321 kts | 145° |
| 2026-05-07 02:28 | 48.49262 | 11.22505 | 12918 ft | 335 kts | 142° |
| 2026-05-07 02:29 | 48.47510 | 11.24855 | 12932 ft | 338 kts | 142° |
| 2026-05-07 02:29 | 48.45755 | 11.27224 | 12922 ft | 338 kts | 142° |
| 2026-05-07 02:29 | 48.44001 | 11.29592 | 12916 ft | 339 kts | 142° |
| 2026-05-07 02:29 | 48.42393 | 11.32214 | 12876 ft | 346 kts | 124° |
| 2026-05-07 02:30 | 48.41616 | 11.35673 | 12907 ft | 354 kts | 97° |
| 2026-05-07 02:30 | 48.41755 | 11.39389 | 12942 ft | 357 kts | 84° |
| 2026-05-07 02:30 | 48.42087 | 11.43103 | 12940 ft | 357 kts | 84° |
| 2026-05-07 02:30 | 48.42422 | 11.46810 | 12936 ft | 357 kts | 84° |
| 2026-05-07 02:31 | 48.42744 | 11.50526 | 12940 ft | 357 kts | 84° |
| 2026-05-07 02:31 | 48.43054 | 11.54241 | 12939 ft | 357 kts | 84° |
| 2026-05-07 02:31 | 48.43356 | 11.57957 | 12940 ft | 357 kts | 84° |
| 2026-05-07 02:31 | 48.43652 | 11.61673 | 12944 ft | 357 kts | 85° |
| 2026-05-07 02:32 | 48.43943 | 11.65371 | 12851 ft | 352 kts | 85° |
| 2026-05-07 02:32 | 48.44229 | 11.69024 | 12384 ft | 351 kts | 85° |
| 2026-05-07 02:32 | 48.44512 | 11.72689 | 11881 ft | 351 kts | 85° |
| 2026-05-07 02:32 | 48.44794 | 11.76333 | 11505 ft | 348 kts | 85° |
| 2026-05-07 02:33 | 48.45071 | 11.79940 | 11106 ft | 345 kts | 85° |
| 2026-05-07 02:33 | 48.45346 | 11.83524 | 10702 ft | 343 kts | 85° |
| 2026-05-07 02:33 | 48.45616 | 11.87067 | 10428 ft | 336 kts | 85° |
| 2026-05-07 02:33 | 48.45879 | 11.90525 | 10259 ft | 327 kts | 85° |
| 2026-05-07 02:34 | 48.46133 | 11.93880 | 10079 ft | 317 kts | 85° |
| 2026-05-07 02:34 | 48.46379 | 11.97143 | 9909 ft | 309 kts | 86° |
| 2026-05-07 02:34 | 48.46619 | 12.00358 | 9554 ft | 305 kts | 86° |
| 2026-05-07 02:34 | 48.46853 | 12.03535 | 8869 ft | 304 kts | 85° |
| 2026-05-07 02:35 | 48.47083 | 12.06698 | 8238 ft | 302 kts | 85° |
| 2026-05-07 02:35 | 48.47312 | 12.09836 | 7623 ft | 300 kts | 85° |
| 2026-05-07 02:35 | 48.47541 | 12.12956 | 7013 ft | 299 kts | 84° |
| 2026-05-07 02:35 | 48.47769 | 12.16071 | 6409 ft | 298 kts | 84° |
| 2026-05-07 02:36 | 48.47804 | 12.19177 | 5791 ft | 297 kts | 104° |
| 2026-05-07 02:36 | 48.46994 | 12.21960 | 5487 ft | 287 kts | 131° |
| 2026-05-07 02:36 | 48.45504 | 12.23828 | 5204 ft | 272 kts | 161° |
| 2026-05-07 02:36 | 48.43739 | 12.24480 | 5048 ft | 254 kts | 180° |
| 2026-05-07 02:37 | 48.42046 | 12.24363 | 4909 ft | 233 kts | 206° |
| 2026-05-07 02:37 | 48.40807 | 12.23104 | 4916 ft | 204 kts | 238° |
| 2026-05-07 02:37 | 48.40076 | 12.21309 | 4943 ft | 200 kts | 248° |
| 2026-05-07 02:37 | 48.39588 | 12.19360 | 4941 ft | 198 kts | 258° |
| 2026-05-07 02:38 | 48.39329 | 12.17328 | 4937 ft | 198 kts | 264° |
| 2026-05-07 02:38 | 48.39207 | 12.15258 | 4943 ft | 198 kts | 265° |
| 2026-05-07 02:38 | 48.39095 | 12.13214 | 4930 ft | 190 kts | 265° |
| 2026-05-07 02:38 | 48.38975 | 12.11327 | 4955 ft | 172 kts | 264° |
| 2026-05-07 02:39 | 48.38849 | 12.09576 | 4948 ft | 166 kts | 264° |
| 2026-05-07 02:39 | 48.38717 | 12.07847 | 4893 ft | 166 kts | 264° |
| 2026-05-07 02:39 | 48.38580 | 12.06115 | 4677 ft | 166 kts | 264° |
| 2026-05-07 02:39 | 48.38443 | 12.04415 | 4436 ft | 165 kts | 264° |
| 2026-05-07 02:40 | 48.38305 | 12.02701 | 4215 ft | 165 kts | 263° |
| 2026-05-07 02:40 | 48.38167 | 12.00987 | 3988 ft | 164 kts | 263° |
| 2026-05-07 02:40 | 48.38030 | 11.99290 | 3781 ft | 163 kts | 264° |
| 2026-05-07 02:40 | 48.37896 | 11.97607 | 3571 ft | 161 kts | 263° |
| 2026-05-07 02:41 | 48.37765 | 11.95949 | 3345 ft | 158 kts | 264° |
| 2026-05-07 02:41 | 48.37636 | 11.94323 | 3132 ft | 154 kts | 264° |
| 2026-05-07 02:41 | 48.37512 | 11.92731 | 2917 ft | 152 kts | 263° |
| 2026-05-07 02:41 | 48.37388 | 11.91149 | 2720 ft | 151 kts | 263° |
| 2026-05-07 02:42 | 48.37266 | 11.89577 | 2504 ft | 151 kts | 262° |
| 2026-05-07 02:42 | 48.37144 | 11.88013 | 2277 ft | 150 kts | 262° |
| 2026-05-07 02:42 | 48.37023 | 11.86457 | 2074 ft | 149 kts | 262° |
| 2026-05-07 02:42 | 48.36899 | 11.84908 | 1855 ft | 149 kts | 262° |
| 2026-05-07 02:43 | 48.36780 | 11.83363 | 1668 ft | 148 kts | 263° |
| 2026-05-07 02:43 | 48.36666 | 11.81826 | 1474 ft | 147 kts | 263° |
| 2026-05-07 02:43 | 48.36558 | 11.80406 | 1471 ft | 125 kts | 263° |
| 2026-05-07 02:43 | 48.36468 | 11.79260 | 1478 ft | 99 kts | 263° |
| 2026-05-07 02:44 | 48.36400 | 11.78384 | 1471 ft | 60 kts | 261° |
| 2026-05-07 02:44 | 48.36284 | 11.77973 | 1461 ft | 36 kts | 233° |
| 2026-05-07 02:44 | 48.36139 | 11.77692 | 1463 ft | 26 kts | 218° |
| 2026-05-07 02:44 | 48.35992 | 11.77678 | 1463 ft | 14 kts | 141° |
| 2026-05-07 02:45 | 48.35969 | 11.77835 | 1475 ft | 17 kts | 85° |
| 2026-05-07 02:45 | 48.35993 | 11.78024 | 1464 ft | 20 kts | 82° |
| 2026-05-07 02:45 | 48.36011 | 11.78241 | 1475 ft | 22 kts | 83° |
| 2026-05-07 02:45 | 48.36029 | 11.78481 | 1474 ft | 24 kts | 83° |
| 2026-05-07 02:46 | 48.36049 | 11.78742 | 1470 ft | 26 kts | 83° |
| 2026-05-07 02:46 | 48.36070 | 11.79020 | 1472 ft | 27 kts | 83° |
| 2026-05-07 02:46 | 48.36080 | 11.79282 | 1470 ft | 14 kts | 109° |
| 2026-05-07 02:46 | 48.36017 | 11.79332 | 1471 ft | 12 kts | 177° |
| 2026-05-07 02:47 | 48.35926 | 11.79344 | 1469 ft | 14 kts | 170° |
| 2026-05-07 02:47 | 48.35827 | 11.79382 | 1469 ft | 6 kts | 174° |
| 2026-05-07 02:47 | 48.35793 | 11.79341 | 1469 ft | 8 kts | 251° |
| 2026-05-07 02:47 | 48.35783 | 11.79259 | 1472 ft | 0 kts | 265° |
| 2026-05-07 02:48 | 48.35783 | 11.79253 | 1472 ft | 0 kts | 265° |